createdAt,value
2024-04-06T00:00:24.545Z,101449.34
2024-04-06T00:02:51.174Z,101447.89
2024-04-06T00:05:19.343Z,101444.72
2024-04-06T00:07:49.681Z,101442.23
2024-04-06T00:10:16.906Z,101437.05
2024-04-06T00:12:43.455Z,101437.99
2024-04-06T00:15:09.987Z,101443.42
2024-04-06T00:17:36.912Z,101444.94
2024-04-06T00:20:04.659Z,101444.76
2024-04-06T00:22:31.280Z,101443.96
2024-04-06T00:24:57.868Z,101445.16
2024-04-06T00:27:24.524Z,101440.70
2024-04-06T00:29:51.020Z,101434.15
2024-04-06T00:32:17.597Z,101432.39
2024-04-06T00:34:44.246Z,101430.65
2024-04-06T00:37:10.795Z,101429.73
2024-04-06T00:39:38.755Z,101431.91
2024-04-06T00:42:05.451Z,101434.02
2024-04-06T00:44:32.134Z,101437.42
2024-04-06T00:47:03.008Z,101440.75
2024-04-06T00:49:30.052Z,101440.32
2024-04-06T00:51:56.672Z,101441.66
2024-04-06T00:54:24.463Z,101445.06
2024-04-06T00:56:51.931Z,101453.05
2024-04-06T00:59:18.837Z,101455.52
2024-04-06T01:01:57.139Z,101448.67
2024-04-06T01:04:30.997Z,101452.87
2024-04-06T01:06:57.755Z,101451.54
2024-04-06T01:09:25.078Z,101453.23
2024-04-06T01:11:51.781Z,101455.75
2024-04-06T01:14:18.629Z,101453.27
2024-04-06T01:16:45.174Z,101453.65
2024-04-06T01:19:11.762Z,101453.69
2024-04-06T01:21:38.641Z,101451.56
2024-04-06T01:24:06.595Z,101448.54
2024-04-06T01:26:33.143Z,101453.98
2024-04-06T01:28:59.774Z,101451.59
2024-04-06T01:31:26.337Z,101449.20
2024-04-06T01:33:52.898Z,101446.23
2024-04-06T01:36:19.506Z,101447.25
2024-04-06T01:38:46.249Z,101448.55
2024-04-06T01:41:12.921Z,101448.83
2024-04-06T01:43:39.576Z,101447.67
2024-04-06T01:46:06.355Z,101446.86
2024-04-06T01:48:32.959Z,101448.14
2024-04-06T01:50:59.545Z,101445.02
2024-04-06T01:53:26.146Z,101446.36
2024-04-06T01:55:52.694Z,101443.38
2024-04-06T01:58:19.232Z,101440.80
2024-04-06T02:00:45.800Z,101438.14
2024-04-06T02:03:12.434Z,101439.16
2024-04-06T02:05:38.970Z,101432.64
2024-04-06T02:08:05.719Z,101434.05
2024-04-06T02:10:32.314Z,101433.58
2024-04-06T02:12:58.956Z,101438.83
2024-04-06T02:15:25.597Z,101440.66
2024-04-06T02:17:53.634Z,101440.80
2024-04-06T02:20:20.197Z,101444.48
2024-04-06T02:22:46.827Z,101442.33
2024-04-06T02:25:13.522Z,101443.83
2024-04-06T02:27:40.066Z,101442.53
2024-04-06T02:30:07.960Z,101440.77
2024-04-06T02:32:34.548Z,101441.23
2024-04-06T02:35:01.407Z,101445.09
2024-04-06T02:37:28.012Z,101444.66
2024-04-06T02:39:54.622Z,101440.77
2024-04-06T02:42:21.199Z,101440.54
2024-04-06T02:44:47.807Z,101444.95
2024-04-06T02:47:14.542Z,101447.40
2024-04-06T02:49:41.134Z,101448.69
2024-04-06T02:52:08.318Z,101451.07
2024-04-06T02:54:34.965Z,101452.55
2024-04-06T02:57:01.583Z,101457.83
2024-04-06T02:59:28.238Z,101457.51
2024-04-06T03:01:54.881Z,101456.98
2024-04-06T03:04:21.425Z,101459.19
2024-04-06T03:06:48.058Z,101459.90
2024-04-06T03:09:14.807Z,101461.05
2024-04-06T03:11:43.454Z,101462.42
2024-04-06T03:14:10.143Z,101463.16
2024-04-06T03:16:36.722Z,101463.39
2024-04-06T03:19:04.365Z,101461.21
2024-04-06T03:21:30.981Z,101462.63
2024-04-06T03:23:57.557Z,101462.80
2024-04-06T03:26:24.089Z,101465.00
2024-04-06T03:28:52.680Z,101463.13
2024-04-06T03:31:19.719Z,101466.85
2024-04-06T03:33:46.295Z,101468.73
2024-04-06T03:36:12.886Z,101468.86
2024-04-06T03:38:39.455Z,101471.37
2024-04-06T03:41:06.121Z,101473.96
2024-04-06T03:43:32.753Z,101473.77
2024-04-06T03:45:59.712Z,101473.31
2024-04-06T03:48:27.326Z,101475.01
2024-04-06T03:50:53.881Z,101474.02
2024-04-06T03:53:31.231Z,101475.67
2024-04-06T03:55:57.845Z,101477.25
2024-04-06T03:58:24.617Z,101476.13
2024-04-06T04:00:51.486Z,101474.73
2024-04-06T04:03:18.107Z,101473.20
2024-04-06T04:05:44.924Z,101471.20
2024-04-06T04:08:11.520Z,101473.98
2024-04-06T04:10:38.127Z,101473.59
2024-04-06T04:13:10.832Z,101472.23
2024-04-06T04:15:41.647Z,101472.41
2024-04-06T04:18:09.236Z,101472.66
2024-04-06T04:20:36.484Z,101477.15
2024-04-06T04:23:03.671Z,101480.41
2024-04-06T04:25:31.029Z,101479.27
2024-04-06T04:27:59.081Z,101480.91
2024-04-06T04:30:25.825Z,101480.95
2024-04-06T04:32:53.093Z,101480.89
2024-04-06T04:35:20.554Z,101479.24
2024-04-06T04:37:47.249Z,101482.05
2024-04-06T04:40:14.148Z,101485.23
2024-04-06T04:42:40.980Z,101483.31
2024-04-06T04:45:13.673Z,101489.61
2024-04-06T04:47:40.744Z,101489.15
2024-04-06T04:50:10.075Z,101490.90
2024-04-06T04:52:37.105Z,101495.45
2024-04-06T04:55:05.470Z,101500.39
2024-04-06T04:57:32.282Z,101500.52
2024-04-06T04:59:58.919Z,101504.15
2024-04-06T05:02:26.033Z,101508.10
2024-04-06T05:04:53.069Z,101505.13
2024-04-06T05:07:20.826Z,101505.19
2024-04-06T05:09:48.231Z,101504.50
2024-04-06T05:12:15.663Z,101509.97
2024-04-06T05:14:42.454Z,101508.71
2024-04-06T05:17:09.048Z,101508.16
2024-04-06T05:19:36.309Z,101512.27
2024-04-06T05:22:03.210Z,101509.55
2024-04-06T05:24:30.215Z,101515.63
2024-04-06T05:26:57.717Z,101518.90
2024-04-06T05:29:24.341Z,101522.27
2024-04-06T05:31:53.209Z,101523.52
2024-04-06T05:34:19.776Z,101525.44
2024-04-06T05:36:47.353Z,101525.81
2024-04-06T05:39:13.914Z,101527.14
2024-04-06T05:41:40.433Z,101529.88
2024-04-06T05:44:07.671Z,101535.61
2024-04-06T05:46:34.353Z,101537.84
2024-04-06T05:49:01.586Z,101537.81
2024-04-06T05:51:29.148Z,101541.20
2024-04-06T05:53:56.026Z,101543.66
2024-04-06T05:56:22.684Z,101545.36
2024-04-06T05:58:49.303Z,101548.02
2024-04-06T06:01:15.903Z,101546.86
2024-04-06T06:03:43.754Z,101546.21
2024-04-06T06:06:11.626Z,101542.66
2024-04-06T06:08:38.872Z,101541.99
2024-04-06T06:11:06.111Z,101544.08
2024-04-06T06:13:33.872Z,101546.98
2024-04-06T06:16:03.287Z,101546.11
2024-04-06T06:18:30.229Z,101544.39
2024-04-06T06:20:56.827Z,101540.86
2024-04-06T06:23:23.428Z,101537.80
2024-04-06T06:25:49.948Z,101539.17
2024-04-06T06:28:17.045Z,101533.58
2024-04-06T06:30:44.021Z,101537.73
2024-04-06T06:33:10.675Z,101533.91
2024-04-06T06:37:52.812Z,101539.05
2024-04-06T06:38:26.264Z,101539.71
2024-04-06T06:40:54.203Z,101541.94
2024-04-06T06:43:21.772Z,101538.19
2024-04-06T06:45:48.367Z,101537.52
2024-04-06T06:48:14.962Z,101535.63
2024-04-06T06:50:41.690Z,101536.52
2024-04-06T06:53:08.359Z,101536.52
2024-04-06T06:55:34.923Z,101543.77
2024-04-06T06:58:01.568Z,101543.77
2024-04-06T07:00:28.243Z,101544.20
2024-04-06T07:02:54.841Z,101544.20
2024-04-06T07:05:21.404Z,101545.52
2024-04-06T07:07:56.461Z,101547.80
2024-04-06T07:10:23.045Z,101548.08
2024-04-06T07:12:49.651Z,101550.52
2024-04-06T07:15:16.350Z,101549.08
2024-04-06T07:17:43.225Z,101554.84
2024-04-06T07:20:10.182Z,101558.89
2024-04-06T07:22:36.865Z,101563.31
2024-04-06T07:25:04.029Z,101564.22
2024-04-06T07:27:30.763Z,101568.00
2024-04-06T07:29:57.446Z,101565.82
2024-04-06T07:32:24.029Z,101569.17
2024-04-06T07:34:50.598Z,101569.92
2024-04-06T07:37:17.227Z,101568.96
2024-04-06T07:39:43.815Z,101560.30
2024-04-06T07:42:10.415Z,101556.98
2024-04-06T07:44:36.946Z,101558.27
2024-04-06T07:47:03.713Z,101559.08
2024-04-06T07:49:30.475Z,101560.14
2024-04-06T07:51:57.076Z,101561.04
2024-04-06T07:54:23.645Z,101564.64
2024-04-06T07:56:50.242Z,101565.83
2024-04-06T07:59:16.828Z,101567.41
2024-04-06T08:01:43.384Z,101564.21
2024-04-06T08:04:10.820Z,101561.41
2024-04-06T08:06:37.434Z,101559.48
2024-04-06T08:09:04.519Z,101561.51
2024-04-06T08:11:31.441Z,101563.36
2024-04-06T08:13:59.067Z,101563.71
2024-04-06T08:16:26.584Z,101567.84
2024-04-06T08:18:53.395Z,101566.27
2024-04-06T08:21:19.995Z,101567.16
2024-04-06T08:23:46.682Z,101571.09
2024-04-06T08:26:13.278Z,101578.04
2024-04-06T08:28:39.800Z,101583.45
2024-04-06T08:31:06.456Z,101581.06
2024-04-06T08:33:33.095Z,101584.92
2024-04-06T08:36:01.126Z,101593.80
2024-04-06T08:38:27.817Z,101591.00
2024-04-06T08:40:54.482Z,101592.42
2024-04-06T08:43:23.169Z,101591.50
2024-04-06T08:45:51.453Z,101593.05
2024-04-06T08:48:20.442Z,101585.16
2024-04-06T08:50:47.474Z,101584.54
2024-04-06T08:53:14.069Z,101582.33
2024-04-06T08:55:41.451Z,101579.67
2024-04-06T08:58:08.153Z,101583.09
2024-04-06T09:00:39.136Z,101581.36
2024-04-06T09:03:06.394Z,101582.27
2024-04-06T09:05:32.972Z,101578.92
2024-04-06T09:07:59.560Z,101574.67
2024-04-06T09:10:26.767Z,101568.77
2024-04-06T09:12:53.373Z,101571.23
2024-04-06T09:15:19.967Z,101569.25
2024-04-06T09:17:46.754Z,101565.98
2024-04-06T09:20:15.101Z,101569.96
2024-04-06T09:22:43.376Z,101568.42
2024-04-06T09:25:10.266Z,101565.48
2024-04-06T09:27:44.064Z,101561.21
2024-04-06T09:30:12.203Z,101559.37
2024-04-06T09:32:40.984Z,101556.52
2024-04-06T09:35:09.138Z,101559.20
2024-04-06T09:37:39.073Z,101557.95
2024-04-06T09:40:09.903Z,101556.05
2024-04-06T09:42:39.489Z,101555.52
2024-04-06T09:45:08.306Z,101552.92
2024-04-06T09:47:36.270Z,101551.91
2024-04-06T09:50:03.803Z,101547.58
2024-04-06T09:52:30.872Z,101545.15
2024-04-06T09:54:57.973Z,101541.56
2024-04-06T09:57:24.809Z,101541.14
2024-04-06T10:00:22.227Z,101540.21
2024-04-06T10:02:51.860Z,101539.48
2024-04-06T10:05:18.493Z,101534.65
2024-04-06T10:07:53.403Z,101532.95
2024-04-06T10:10:30.371Z,101527.55
2024-04-06T10:12:57.265Z,101526.92
2024-04-06T10:15:24.310Z,101528.19
2024-04-06T10:17:54.021Z,101526.96
2024-04-06T10:20:25.031Z,101524.41
2024-04-06T10:22:56.685Z,101525.58
2024-04-06T10:25:30.332Z,101525.20
2024-04-06T10:28:10.385Z,101523.11
2024-04-06T10:30:41.328Z,101518.92
2024-04-06T10:33:09.388Z,101518.09
2024-04-06T10:35:36.145Z,101512.89
2024-04-06T10:38:04.044Z,101505.33
2024-04-06T10:40:35.426Z,101497.80
2024-04-06T10:43:06.129Z,101498.69
2024-04-06T10:45:33.931Z,101494.06
2024-04-06T10:48:02.251Z,101493.52
2024-04-06T10:50:29.053Z,101490.64
2024-04-06T10:52:55.791Z,101485.79
2024-04-06T10:55:22.542Z,101483.28
2024-04-06T10:57:49.355Z,101477.89
2024-04-06T11:00:19.007Z,101477.65
2024-04-06T11:02:45.907Z,101476.38
2024-04-06T11:05:12.459Z,101470.52
2024-04-06T11:07:40.188Z,101465.17
2024-04-06T11:10:08.915Z,101460.27
2024-04-06T11:12:40.638Z,101461.86
2024-04-06T11:15:08.757Z,101459.77
2024-04-06T11:17:36.294Z,101452.34
2024-04-06T11:20:04.974Z,101445.21
2024-04-06T11:22:31.676Z,101442.63
2024-04-06T11:24:58.428Z,101442.45
2024-04-06T11:27:28.435Z,101444.39
2024-04-06T11:29:56.088Z,101447.39
2024-04-06T11:32:24.677Z,101448.98
2024-04-06T11:34:53.026Z,101452.54
2024-04-06T11:37:22.105Z,101448.77
2024-04-06T11:39:50.630Z,101446.11
2024-04-06T11:42:21.384Z,101444.90
2024-04-06T11:44:47.972Z,101435.63
2024-04-06T11:47:14.913Z,101436.34
2024-04-06T11:49:41.516Z,101431.64
2024-04-06T11:52:08.253Z,101432.75
2024-04-06T11:54:35.221Z,101429.71
2024-04-06T11:57:01.842Z,101427.04
2024-04-06T11:59:28.647Z,101421.75
2024-04-06T12:01:55.739Z,101420.17
2024-04-06T12:04:22.674Z,101415.77
2024-04-06T12:06:49.917Z,101419.10
2024-04-06T12:09:17.482Z,101411.23
2024-04-06T12:11:44.167Z,101408.60
2024-04-06T12:14:10.858Z,101406.77
2024-04-06T12:16:37.508Z,101406.55
2024-04-06T12:19:04.184Z,101398.15
2024-04-06T12:21:30.878Z,101399.15
2024-04-06T12:23:57.586Z,101395.43
2024-04-06T12:26:24.156Z,101394.62
2024-04-06T12:28:50.805Z,101396.73
2024-04-06T12:31:18.802Z,101385.17
2024-04-06T12:33:45.417Z,101385.07
2024-04-06T12:36:12.543Z,101383.02
2024-04-06T12:38:39.130Z,101379.52
2024-04-06T12:41:06.233Z,101386.63
2024-04-06T12:43:32.928Z,101385.16
2024-04-06T12:46:02.402Z,101383.02
2024-04-06T12:48:29.564Z,101379.39
2024-04-06T12:50:56.615Z,101372.09
2024-04-06T12:53:23.232Z,101366.92
2024-04-06T12:55:50.467Z,101368.73
2024-04-06T12:58:17.522Z,101361.71
2024-04-06T13:00:45.003Z,101361.70
2024-04-06T13:03:11.589Z,101361.23
2024-04-06T13:05:38.256Z,101355.58
2024-04-06T13:08:05.804Z,101354.73
2024-04-06T13:10:32.454Z,101352.82
2024-04-06T13:12:59.051Z,101351.00
2024-04-06T13:15:25.583Z,101347.90
2024-04-06T13:17:52.158Z,101343.95
2024-04-06T13:20:18.821Z,101344.41
2024-04-06T13:22:46.073Z,101341.83
2024-04-06T13:25:13.239Z,101341.64
2024-04-06T13:27:40.098Z,101330.88
2024-04-06T13:30:09.083Z,101334.31
2024-04-06T13:32:36.278Z,101331.34
2024-04-06T13:35:05.951Z,101330.06
2024-04-06T13:37:33.637Z,101332.76
2024-04-06T13:40:01.283Z,101334.83
2024-04-06T13:42:27.852Z,101331.00
2024-04-06T13:44:54.689Z,101330.47
2024-04-06T13:47:21.989Z,101324.58
2024-04-06T13:49:49.776Z,101318.88
2024-04-06T13:52:17.670Z,101315.82
2024-04-06T13:54:44.477Z,101316.70
2024-04-06T13:57:11.200Z,101315.27
2024-04-06T13:59:37.835Z,101309.77
2024-04-06T14:02:04.967Z,101307.51
2024-04-06T14:04:31.869Z,101305.27
2024-04-06T14:06:58.507Z,101301.63
2024-04-06T14:09:26.438Z,101295.48
2024-04-06T14:11:56.132Z,101294.22
2024-04-06T14:14:23.882Z,101295.92
2024-04-06T14:16:52.640Z,101294.33
2024-04-06T14:19:23.613Z,101295.27
2024-04-06T14:21:51.431Z,101297.58
2024-04-06T14:24:18.660Z,101299.20
2024-04-06T14:26:47.457Z,101301.31
2024-04-06T14:29:14.369Z,101297.98
2024-04-06T14:31:40.989Z,101291.02
2024-04-06T14:34:08.747Z,101291.87
2024-04-06T14:36:36.590Z,101292.00
2024-04-06T14:39:04.190Z,101289.08
2024-04-06T14:41:31.580Z,101288.17
2024-04-06T14:43:58.139Z,101284.72
2024-04-06T14:46:25.357Z,101287.12
2024-04-06T14:48:52.825Z,101284.73
2024-04-06T14:51:20.453Z,101280.64
2024-04-06T14:53:47.084Z,101277.98
2024-04-06T14:56:13.650Z,101274.80
2024-04-06T14:58:40.310Z,101269.91
2024-04-06T15:01:07.408Z,101272.86
2024-04-06T15:03:34.156Z,101276.20
2024-04-06T15:06:01.390Z,101267.95
2024-04-06T15:08:28.059Z,101268.34
2024-04-06T15:10:54.731Z,101265.95
2024-04-06T15:13:21.339Z,101260.95
2024-04-06T15:15:48.206Z,101264.36
2024-04-06T15:18:14.863Z,101262.89
2024-04-06T15:20:41.516Z,101262.20
2024-04-06T15:23:09.355Z,101261.38
2024-04-06T15:25:36.043Z,101260.89
2024-04-06T15:28:02.667Z,101259.30
2024-04-06T15:30:29.354Z,101262.81
2024-04-06T15:32:55.956Z,101264.98
2024-04-06T15:35:22.532Z,101264.65
2024-04-06T15:37:49.159Z,101264.71
2024-04-06T15:40:15.960Z,101261.42
2024-04-06T15:42:42.614Z,101260.31
2024-04-06T15:45:09.149Z,101254.92
2024-04-06T15:47:36.026Z,101256.13
2024-04-06T15:50:02.871Z,101256.98
2024-04-06T15:52:29.604Z,101257.85
2024-04-06T15:54:56.848Z,101258.29
2024-04-06T15:57:23.435Z,101254.13
2024-04-06T15:59:50.267Z,101256.44
2024-04-06T16:02:17.219Z,101258.14
2024-04-06T16:04:44.005Z,101258.29
2024-04-06T16:07:11.056Z,101256.68
2024-04-06T16:09:37.683Z,101253.44
2024-04-06T16:12:05.954Z,101254.21
2024-04-06T16:14:32.520Z,101252.72
2024-04-06T16:16:59.196Z,101252.89
2024-04-06T16:19:26.202Z,101250.23
2024-04-06T16:21:52.972Z,101250.29
2024-04-06T16:24:19.574Z,101247.66
2024-04-06T16:26:46.198Z,101249.35
2024-04-06T16:29:13.236Z,101252.30
2024-04-06T16:31:40.074Z,101252.86
2024-04-06T16:34:06.698Z,101257.02
2024-04-06T16:36:33.381Z,101260.68
2024-04-06T16:39:00.059Z,101263.95
2024-04-06T16:41:26.910Z,101263.63
2024-04-06T16:43:53.477Z,101264.98
2024-04-06T16:46:20.096Z,101268.41
2024-04-06T16:48:46.635Z,101265.91
2024-04-06T16:51:13.285Z,101266.33
2024-04-06T16:53:41.766Z,101270.02
2024-04-06T16:56:08.354Z,101269.50
2024-04-06T16:58:34.913Z,101269.10
2024-04-06T17:01:02.366Z,101271.93
2024-04-06T17:03:30.210Z,101276.37
2024-04-06T17:05:57.019Z,101276.14
2024-04-06T17:08:23.652Z,101277.38
2024-04-06T17:10:50.521Z,101279.23
2024-04-06T17:13:17.147Z,101276.14
2024-04-06T17:15:43.735Z,101275.85
2024-04-06T17:18:11.462Z,101271.60
2024-04-06T17:20:38.132Z,101270.56
2024-04-06T17:23:08.936Z,101273.16
2024-04-06T17:25:36.032Z,101274.69
2024-04-06T17:28:02.809Z,101273.83
2024-04-06T17:30:30.146Z,101274.11
2024-04-06T17:32:57.458Z,101276.34
2024-04-06T17:35:24.218Z,101280.11
2024-04-06T17:37:50.740Z,101283.08
2024-04-06T17:40:17.947Z,101282.14
2024-04-06T17:42:45.119Z,101283.96
2024-04-06T17:45:11.976Z,101284.69
2024-04-06T17:47:38.633Z,101289.98
2024-04-06T17:50:05.376Z,101287.16
2024-04-06T17:52:32.147Z,101287.28
2024-04-06T17:54:58.836Z,101285.02
2024-04-06T17:57:25.518Z,101282.73
2024-04-06T17:59:52.038Z,101280.16
2024-04-06T18:02:21.503Z,101277.67
2024-04-06T18:04:48.148Z,101283.55
2024-04-06T18:07:14.787Z,101290.23
2024-04-06T18:09:41.643Z,101293.09
2024-04-06T18:12:08.526Z,101295.16
2024-04-06T18:14:35.682Z,101298.71
2024-04-06T18:17:02.316Z,101296.81
2024-04-06T18:19:28.858Z,101302.52
2024-04-06T18:21:55.470Z,101304.63
2024-04-06T18:24:22.859Z,101308.38
2024-04-06T18:26:49.515Z,101308.59
2024-04-06T18:29:16.519Z,101313.23
2024-04-06T18:31:43.166Z,101316.83
2024-04-06T18:34:09.687Z,101321.55
2024-04-06T18:36:36.372Z,101327.20
2024-04-06T18:39:03.018Z,101333.32
2024-04-06T18:41:29.623Z,101334.02
2024-04-06T18:43:56.235Z,101339.89
2024-04-06T18:46:22.822Z,101341.57
2024-04-06T18:48:49.434Z,101347.70
2024-04-06T18:51:17.476Z,101353.82
2024-04-06T18:53:44.211Z,101357.55
2024-04-06T18:56:10.813Z,101357.48
2024-04-06T18:58:37.424Z,101358.23
2024-04-06T19:01:04.450Z,101361.84
2024-04-06T19:03:31.042Z,101366.17
2024-04-06T19:05:57.702Z,101369.14
2024-04-06T19:08:24.249Z,101373.75
2024-04-06T19:10:50.803Z,101373.36
2024-04-06T19:13:17.458Z,101375.17
2024-04-06T19:15:44.648Z,101376.76
2024-04-06T19:18:11.228Z,101372.87
2024-04-06T19:20:37.821Z,101378.55
2024-04-06T19:23:04.763Z,101377.54
2024-04-06T19:25:36.695Z,101384.09
2024-04-06T19:28:04.779Z,101384.99
2024-04-06T19:30:32.136Z,101384.73
2024-04-06T19:32:59.017Z,101387.26
2024-04-06T19:35:25.643Z,101387.91
2024-04-06T19:37:52.226Z,101389.23
2024-04-06T19:40:19.595Z,101385.02
2024-04-06T19:42:46.262Z,101384.90
2024-04-06T19:45:15.504Z,101384.98
2024-04-06T19:47:42.107Z,101381.88
2024-04-06T19:50:08.744Z,101378.64
2024-04-06T19:52:35.882Z,101377.98
2024-04-06T19:55:05.821Z,101376.29
2024-04-06T19:57:33.594Z,101376.90
2024-04-06T20:00:00.236Z,101376.93
2024-04-06T20:02:27.911Z,101380.38
2024-04-06T20:04:54.471Z,101378.70
2024-04-06T20:07:21.480Z,101377.10
2024-04-06T20:09:48.009Z,101378.42
2024-04-06T20:12:15.068Z,101383.32
2024-04-06T20:14:41.707Z,101381.65
2024-04-06T20:17:08.381Z,101385.62
2024-04-06T20:19:34.991Z,101389.20
2024-04-06T20:22:20.286Z,101387.33
2024-04-06T20:25:05.456Z,101388.91
2024-04-06T20:27:32.009Z,101387.34
2024-04-06T20:29:58.628Z,101388.71
2024-04-06T20:32:25.367Z,101387.45
2024-04-06T20:34:51.910Z,101390.14
2024-04-06T20:37:19.828Z,101390.73
2024-04-06T20:39:46.353Z,101394.27
2024-04-06T20:42:14.754Z,101393.09
2024-04-06T20:44:44.207Z,101394.27
2024-04-06T20:47:10.802Z,101398.40
2024-04-06T20:49:37.408Z,101402.89
2024-04-06T20:52:04.392Z,101400.56
2024-04-06T20:54:31.398Z,101398.66
2024-04-06T20:56:58.293Z,101399.31
2024-04-06T20:59:25.263Z,101395.83
2024-04-06T21:01:52.180Z,101399.73
2024-04-06T21:04:18.741Z,101397.91
2024-04-06T21:06:45.308Z,101393.05
2024-04-06T21:09:12.099Z,101393.14
2024-04-06T21:11:38.840Z,101391.67
2024-04-06T21:14:06.684Z,101390.64
2024-04-06T21:16:33.277Z,101395.15
2024-04-06T21:18:59.910Z,101390.46
2024-04-06T21:21:26.571Z,101391.55
2024-04-06T21:23:53.209Z,101392.30
2024-04-06T21:26:19.751Z,101392.29
2024-04-06T21:28:46.457Z,101392.63
2024-04-06T21:31:13.053Z,101395.64
2024-04-06T21:33:39.635Z,101390.27
2024-04-06T21:36:06.430Z,101389.27
2024-04-06T21:38:33.048Z,101393.54
2024-04-06T21:41:04.305Z,101393.71
2024-04-06T21:43:31.163Z,101398.61
2024-04-06T21:45:57.778Z,101399.85
2024-04-06T21:48:25.354Z,101405.19
2024-04-06T21:50:55.350Z,101404.94
2024-04-06T21:53:22.123Z,101411.48
2024-04-06T21:55:51.611Z,101410.89
2024-04-06T21:58:19.258Z,101415.48
2024-04-06T22:00:45.889Z,101414.83
2024-04-06T22:03:13.783Z,101413.33
2024-04-06T22:05:40.589Z,101412.95
2024-04-06T22:08:07.454Z,101409.73
2024-04-06T22:10:35.427Z,101410.43
2024-04-06T22:13:02.125Z,101414.02
2024-04-06T22:15:28.793Z,101412.50
2024-04-06T22:17:55.388Z,101408.41
2024-04-06T22:20:24.069Z,101409.58
2024-04-06T22:22:50.703Z,101411.83
2024-04-06T22:25:17.476Z,101412.13
2024-04-06T22:27:44.028Z,101410.74
2024-04-06T22:30:10.873Z,101405.94
2024-04-06T22:32:37.812Z,101408.84
2024-04-06T22:35:05.899Z,101409.54
2024-04-06T22:37:32.476Z,101410.45
2024-04-06T22:39:59.021Z,101412.55
2024-04-06T22:42:25.623Z,101410.84
2024-04-06T22:44:52.397Z,101409.23
2024-04-06T22:47:19.404Z,101410.08
2024-04-06T22:49:46.079Z,101408.20
2024-04-06T22:52:12.817Z,101409.00
2024-04-06T22:54:39.624Z,101406.23
2024-04-06T22:57:06.354Z,101406.08
2024-04-06T22:59:33.609Z,101405.63
2024-04-06T23:02:00.274Z,101400.09
2024-04-06T23:04:27.518Z,101399.66
2024-04-06T23:06:54.427Z,101396.96
2024-04-06T23:09:21.122Z,101401.22
2024-04-06T23:11:47.697Z,101400.52
2024-04-06T23:14:14.421Z,101399.45
2024-04-06T23:16:41.083Z,101399.61
2024-04-06T23:19:07.712Z,101400.73
2024-04-06T23:21:34.263Z,101399.98
2024-04-06T23:24:00.902Z,101399.56
2024-04-06T23:26:27.470Z,101399.73
2024-04-06T23:28:54.005Z,101395.00
2024-04-06T23:31:20.522Z,101395.69
2024-04-06T23:33:47.218Z,101396.44
2024-04-06T23:36:13.839Z,101396.88
2024-04-06T23:38:40.358Z,101396.79
2024-04-06T23:41:06.906Z,101397.16
2024-04-06T23:43:33.549Z,101393.73
2024-04-06T23:46:03.738Z,101388.39
2024-04-06T23:48:30.590Z,101389.91
2024-04-06T23:50:57.566Z,101392.50
2024-04-06T23:53:24.356Z,101388.89
2024-04-06T23:55:50.902Z,101387.73
2024-04-06T23:58:17.591Z,101385.95
